createdAt,value
2023-05-05T03:46:02.174Z,100876.63
2023-05-05T03:49:05.715Z,100876.63
2023-05-05T03:52:08.631Z,100885.72
2023-05-05T03:55:11.978Z,100884.87
2023-05-05T03:58:14.394Z,100890.66
2023-05-05T04:01:17.788Z,100891.37
2023-05-05T04:04:21.367Z,100898.03
2023-05-05T04:07:24.036Z,100903.03
2023-05-05T04:10:26.989Z,100897.28
2023-05-05T04:13:29.841Z,100895.00
2023-05-05T04:16:32.612Z,100900.12
2023-05-05T04:19:35.413Z,100890.28
2023-05-05T04:22:38.563Z,100897.09
2023-05-05T04:25:41.190Z,100893.22
2023-05-05T04:28:45.455Z,100892.84
2023-05-05T04:31:48.310Z,100892.53
2023-05-05T04:34:52.342Z,100898.31
2023-05-05T04:37:55.590Z,100903.34
2023-05-05T04:40:59.970Z,100908.53
2023-05-05T04:44:02.916Z,100904.50
2023-05-05T04:47:05.870Z,100905.09
2023-05-05T04:50:09.900Z,100914.25
2023-05-05T04:53:13.018Z,100912.94
2023-05-05T04:56:15.628Z,100922.22
2023-05-05T04:59:18.276Z,100920.03
2023-05-05T05:02:21.028Z,100925.91
2023-05-05T05:05:25.138Z,100925.34
2023-05-05T05:08:27.899Z,100918.87
2023-05-05T05:11:31.050Z,100924.78
2023-05-05T05:14:39.892Z,100927.41
2023-05-05T05:17:42.833Z,100928.69
2023-05-05T05:20:45.507Z,100933.25
2023-05-05T05:23:48.711Z,100930.00
2023-05-05T05:26:51.675Z,100925.84
2023-05-05T05:29:54.527Z,100929.94
2023-05-05T05:32:57.124Z,100931.59
2023-05-05T05:35:59.947Z,100932.66
2023-05-05T05:39:02.493Z,100936.75
2023-05-05T05:42:05.523Z,100931.56
2023-05-05T05:45:08.716Z,100935.53
2023-05-05T05:48:11.475Z,100947.88
2023-05-05T05:51:14.050Z,100946.16
2023-05-05T05:54:16.820Z,100943.59
2023-05-05T05:57:22.668Z,100946.13
2023-05-05T06:00:26.494Z,100948.50
2023-05-05T06:03:30.165Z,100942.13
2023-05-05T06:06:32.611Z,100950.62
2023-05-05T06:09:36.283Z,100947.03
2023-05-05T06:12:39.414Z,100948.47
2023-05-05T06:15:42.628Z,100944.44
2023-05-05T06:18:45.482Z,100949.63
2023-05-05T06:21:48.270Z,100947.81
2023-05-05T06:24:51.450Z,100941.53
2023-05-05T06:27:54.662Z,100944.50
2023-05-05T06:30:57.018Z,100933.94
2023-05-05T06:33:59.658Z,100934.97
2023-05-05T06:37:02.254Z,100927.53
2023-05-05T06:40:06.750Z,100929.56
2023-05-05T06:43:09.409Z,100931.56
2023-05-05T06:46:12.472Z,100930.50
2023-05-05T06:49:14.927Z,100929.50
2023-05-05T06:52:17.770Z,100932.72
2023-05-05T06:55:20.341Z,100932.19
2023-05-05T06:58:23.041Z,100939.16
2023-05-05T07:01:25.514Z,100932.22
2023-05-05T07:04:28.134Z,100932.63
2023-05-05T07:07:31.723Z,100930.91
2023-05-05T07:10:34.807Z,100924.19
2023-05-05T07:13:37.279Z,100926.84
2023-05-05T07:16:40.446Z,100928.84
2023-05-05T07:19:44.123Z,100934.22
2023-05-05T07:22:46.839Z,100937.84
2023-05-05T07:25:49.281Z,100933.50
2023-05-05T07:28:52.391Z,100924.75
2023-05-05T07:31:55.032Z,100932.34
2023-05-05T07:34:57.848Z,100924.41
2023-05-05T07:38:00.498Z,100924.94
2023-05-05T07:41:03.405Z,100937.72
2023-05-05T07:44:06.013Z,100933.50
2023-05-05T07:47:09.033Z,100929.38
2023-05-05T07:50:11.509Z,100929.06
2023-05-05T07:53:15.320Z,100921.53
2023-05-05T07:56:18.151Z,100933.41
2023-05-05T07:59:21.608Z,100933.81
2023-05-05T08:02:24.013Z,100933.72
2023-05-05T08:05:27.014Z,100922.50
2023-05-05T08:08:29.640Z,100927.88
2023-05-05T08:11:32.573Z,100932.69
2023-05-05T08:14:36.556Z,100923.72
2023-05-05T08:17:50.146Z,100920.75
2023-05-05T08:20:53.063Z,100913.78
2023-05-05T08:23:55.760Z,100918.13
2023-05-05T08:26:58.095Z,100914.00
2023-05-05T08:30:01.977Z,100917.69
2023-05-05T08:33:04.888Z,100927.41
2023-05-05T08:36:09.191Z,100917.00
2023-05-05T08:39:11.715Z,100918.31
2023-05-05T08:42:22.454Z,100920.75
2023-05-05T08:45:39.403Z,100919.94
2023-05-05T08:48:44.162Z,100915.69
2023-05-05T08:51:47.748Z,100916.09
2023-05-05T08:54:57.945Z,100915.06
2023-05-05T08:58:04.156Z,100911.09
2023-05-05T09:01:07.690Z,100912.94
2023-05-05T09:04:10.928Z,100908.97
2023-05-05T09:07:13.690Z,100909.00
2023-05-05T09:10:16.442Z,100901.56
2023-05-05T09:13:28.481Z,100896.56
2023-05-05T09:16:30.914Z,100905.06
2023-05-05T09:19:33.720Z,100899.41
2023-05-05T09:22:38.746Z,100896.97
2023-05-05T09:25:45.014Z,100886.25
2023-05-05T09:28:52.456Z,100892.53
2023-05-05T09:32:08.865Z,100882.56
2023-05-05T09:35:13.489Z,100879.62
2023-05-05T09:38:17.715Z,100878.56
2023-05-05T09:41:37.119Z,100871.66
2023-05-05T09:44:40.701Z,100868.28
2023-05-05T09:47:43.187Z,100870.38
2023-05-05T09:50:46.219Z,100863.38
2023-05-05T09:53:48.579Z,100866.41
2023-05-05T09:56:52.365Z,100865.84
2023-05-05T09:59:57.464Z,100863.50
2023-05-05T10:03:02.791Z,100859.31
2023-05-05T10:06:07.743Z,100864.06
2023-05-05T10:09:10.564Z,100860.00
2023-05-05T10:12:13.257Z,100861.03
2023-05-05T10:15:15.989Z,100862.03
2023-05-05T10:18:27.056Z,100849.88
2023-05-05T10:21:35.719Z,100850.53
2023-05-05T10:24:50.740Z,100838.34
2023-05-05T10:27:59.122Z,100847.63
2023-05-05T10:31:09.875Z,100842.53
2023-05-05T10:34:38.340Z,100833.81
2023-05-05T10:37:41.625Z,100834.50
2023-05-05T10:40:48.653Z,100831.19
2023-05-05T10:43:55.179Z,100816.13
2023-05-05T10:46:58.168Z,100822.88
2023-05-05T10:50:21.581Z,100812.16
2023-05-05T10:53:28.720Z,100822.81
2023-05-05T10:56:33.800Z,100804.97
2023-05-05T10:59:39.132Z,100794.13
2023-05-05T11:02:42.071Z,100800.94
2023-05-05T11:06:09.304Z,100795.91
2023-05-05T11:09:28.528Z,100787.22
2023-05-05T11:12:32.738Z,100789.59
2023-05-05T11:15:37.970Z,100785.84
2023-05-05T11:22:04.427Z,100782.50
2023-05-05T11:25:40.686Z,100783.78
2023-05-05T11:28:57.461Z,100768.47
2023-05-05T11:32:14.027Z,100762.53
2023-05-05T11:35:16.728Z,100771.53
2023-05-05T11:38:23.378Z,100766.78
2023-05-05T11:41:32.297Z,100761.25
2023-05-05T11:44:35.734Z,100754.97
2023-05-05T11:47:38.947Z,100753.41
2023-05-05T11:50:41.875Z,100747.66
2023-05-05T11:53:46.783Z,100744.69
2023-05-05T11:56:55.518Z,100742.03
2023-05-05T12:00:09.190Z,100733.41
2023-05-05T12:03:12.793Z,100735.50
2023-05-05T12:06:15.654Z,100733.31
2023-05-05T12:09:19.617Z,100736.50
2023-05-05T12:12:21.988Z,100732.44
2023-05-05T12:15:29.542Z,100721.06
2023-05-05T12:18:32.167Z,100721.03
2023-05-05T12:21:36.393Z,100733.03
2023-05-05T12:24:39.189Z,100714.59
2023-05-05T12:27:52.055Z,100714.84
2023-05-05T12:30:58.999Z,100717.12
2023-05-05T12:34:03.527Z,100722.47
2023-05-05T12:37:06.059Z,100717.41
2023-05-05T12:40:47.102Z,100707.72
2023-05-05T12:43:58.851Z,100701.78
2023-05-05T12:47:01.644Z,100698.84
2023-05-05T12:50:04.413Z,100698.56
2023-05-05T12:53:07.390Z,100695.91
2023-05-05T12:56:37.569Z,100691.53
2023-05-05T12:59:40.451Z,100695.47
2023-05-05T13:02:42.914Z,100688.44
2023-05-05T13:05:45.967Z,100681.53
2023-05-05T13:08:48.409Z,100677.81
2023-05-05T13:11:51.288Z,100675.72
2023-05-05T13:14:53.811Z,100673.97
2023-05-05T13:18:00.824Z,100671.75
2023-05-05T13:21:03.196Z,100661.03
2023-05-05T13:24:21.419Z,100651.47
2023-05-05T13:27:26.084Z,100642.34
2023-05-05T13:30:29.009Z,100645.47
2023-05-05T13:33:35.153Z,100640.16
2023-05-05T13:36:38.600Z,100644.19
2023-05-05T13:39:40.921Z,100636.22
2023-05-05T13:42:44.173Z,100631.53
2023-05-05T13:45:47.084Z,100626.50
2023-05-05T13:48:52.495Z,100622.94
2023-05-05T13:51:58.628Z,100619.41
2023-05-05T13:55:01.306Z,100624.53
2023-05-05T13:58:04.150Z,100622.06
2023-05-05T14:01:06.927Z,100621.84
2023-05-05T14:04:09.781Z,100612.94
2023-05-05T14:07:12.157Z,100616.13
2023-05-05T14:10:14.972Z,100616.22
2023-05-05T14:13:17.423Z,100618.34
2023-05-05T14:16:22.499Z,100613.47
2023-05-05T14:19:24.976Z,100613.16
2023-05-05T14:22:27.655Z,100608.12
2023-05-05T14:25:30.370Z,100607.03
2023-05-05T14:28:33.283Z,100606.00
2023-05-05T14:31:36.708Z,100599.53
2023-05-05T14:34:39.588Z,100599.97
2023-05-05T14:37:42.033Z,100597.44
2023-05-05T14:40:44.572Z,100595.03
2023-05-05T14:43:46.818Z,100595.31
2023-05-05T14:46:51.059Z,100597.69
2023-05-05T14:49:53.727Z,100595.03
2023-05-05T14:52:56.536Z,100599.13
2023-05-05T14:55:58.836Z,100593.06
2023-05-05T14:59:01.643Z,100596.16
2023-05-05T15:02:04.290Z,100588.25
2023-05-05T15:05:07.939Z,100592.94
2023-05-05T15:08:10.761Z,100588.91
2023-05-05T15:11:13.782Z,100591.00
2023-05-05T15:14:16.167Z,100591.62
2023-05-05T15:17:18.865Z,100591.50
2023-05-05T15:20:21.474Z,100583.34
2023-05-05T15:23:24.609Z,100587.59
2023-05-05T15:26:27.313Z,100583.09
2023-05-05T15:29:30.352Z,100582.66
2023-05-05T15:32:33.062Z,100591.53
2023-05-05T15:35:36.267Z,100577.31
2023-05-05T15:38:44.353Z,100584.94
2023-05-05T15:41:47.017Z,100578.66
2023-05-05T15:44:49.895Z,100574.69
2023-05-05T15:47:53.641Z,100567.13
